Time;durP1;ratioP1;P1;durP2;ratioP2;P2;SDS_P1;SDS_P2;PMS_P1;PMS_P2;Temp;Humidity;BMP_temperature;BMP_pressure;BME280_temperature;BME280_humidity;BME280_pressure;Samples;Min_cycle;Max_cycle;Signal;HPM_P1;HPM_P2
2023/09/18 00:00:50;;;;;;;4.20;3.80;;;;;;;15.45;100.00;101394.06;105689;1257;73431;-50
2023/09/18 00:03:19;;;;;;;4.50;3.50;;;;;;;15.43;100.00;101397.19;106101;1257;66736;-49
2023/09/18 00:05:47;;;;;;;4.50;3.80;;;;;;;15.42;100.00;101393.45;104652;1259;71387;-50
2023/09/18 00:08:16;;;;;;;2.90;2.70;;;;;;;15.40;100.00;101387.76;104675;1254;61591;-49
2023/09/18 00:10:51;;;;;;;3.00;2.80;;;;;;;15.38;100.00;101387.48;104748;1254;60240;-49
2023/09/18 00:13:19;;;;;;;3.50;2.60;;;;;;;15.35;100.00;101387.60;104976;1257;73035;-51
2023/09/18 00:15:47;;;;;;;7.10;2.80;;;;;;;15.32;100.00;101381.20;104748;1254;66801;-50
2023/09/18 00:18:15;;;;;;;5.30;3.20;;;;;;;15.31;100.00;101382.90;104828;1260;71203;-49
2023/09/18 00:20:43;;;;;;;4.80;2.60;;;;;;;15.30;100.00;101379.52;108845;1257;63942;-50
2023/09/18 00:23:10;;;;;;;4.20;1.80;;;;;;;15.30;100.00;101379.70;107756;1260;59917;-50
2023/09/18 00:25:38;;;;;;;5.20;2.30;;;;;;;15.30;100.00;101375.17;104949;1259;73081;-50
2023/09/18 00:28:05;;;;;;;2.90;2.60;;;;;;;15.31;100.00;101373.69;104611;1254;66999;-49
2023/09/18 00:30:32;;;;;;;6.60;2.60;;;;;;;15.32;100.00;101375.77;104605;1256;72055;-50
2023/09/18 00:33:00;;;;;;;2.50;2.20;;;;;;;15.35;100.00;101379.48;104715;1254;61790;-51
2023/09/18 00:35:27;;;;;;;3.00;2.80;;;;;;;15.36;100.00;101379.42;104765;1254;60692;-51
2023/09/18 00:37:54;;;;;;;3.30;2.30;;;;;;;15.37;100.00;101378.66;104819;1258;74100;-50
2023/09/18 00:40:22;;;;;;;4.80;2.50;;;;;;;15.37;100.00;101381.20;104684;1254;65802;-50
2023/09/18 00:42:49;;;;;;;3.90;2.50;;;;;;;15.35;100.00;101377.13;104683;1257;72615;-50
2023/09/18 00:45:16;;;;;;;2.30;2.10;;;;;;;15.34;100.00;101375.91;104511;1254;60041;-50
2023/09/18 00:47:44;;;;;;;6.60;3.60;;;;;;;15.32;100.00;101374.53;104479;1259;59839;-50
2023/09/18 00:50:11;;;;;;;3.40;3.10;;;;;;;15.30;100.00;101371.37;104571;1254;73009;-50
2023/09/18 00:52:39;;;;;;;3.40;3.10;;;;;;;15.28;100.00;101371.08;104771;1256;65513;-48
2023/09/18 00:55:06;;;;;;;4.00;2.90;;;;;;;15.26;100.00;101368.06;104757;1254;72732;-50
2023/09/18 00:57:35;;;;;;;3.30;3.00;;;;;;;15.24;100.00;101366.52;104670;1257;60622;-50
2023/09/18 01:00:05;;;;;;;2.40;2.00;;;;;;;15.23;100.00;101365.70;106240;1254;61107;-51
2023/09/18 01:02:32;;;;;;;3.20;2.90;;;;;;;15.21;100.00;101366.70;104756;1254;73794;-51
2023/09/18 01:05:00;;;;;;;4.20;3.40;;;;;;;15.19;100.00;101364.27;104796;1254;64838;-52
2023/09/18 01:07:28;;;;;;;2.90;2.00;;;;;;;15.16;100.00;101364.52;105300;1256;72422;-51
2023/09/18 01:09:56;;;;;;;2.40;2.20;;;;;;;15.13;100.00;101360.69;104857;1260;60981;-50
2023/09/18 01:12:34;;;;;;;4.00;1.90;;;;;;;15.10;100.00;101361.70;104565;1254;60502;-52
2023/09/18 01:15:44;;;;;;;4.80;2.30;;;;;;;15.07;100.00;101361.43;105383;1254;72642;-51
2023/09/18 01:18:11;;;;;;;3.00;2.40;;;;;;;15.05;100.00;101365.16;105118;1256;65651;-51
2023/09/18 01:20:39;;;;;;;2.80;2.00;;;;;;;15.03;100.00;101358.22;104591;1257;73165;-50
2023/09/18 01:23:07;;;;;;;7.40;2.90;;;;;;;15.03;100.00;101354.08;104642;1254;61259;-51
2023/09/18 01:25:34;;;;;;;3.40;3.10;;;;;;;15.02;100.00;101352.09;104807;1257;60434;-50
2023/09/18 01:28:02;;;;;;;5.60;2.90;;;;;;;15.02;100.00;101351.55;104830;1256;72903;-51
2023/09/18 01:30:29;;;;;;;3.70;3.00;;;;;;;15.02;100.00;101350.81;104609;1254;66004;-51
2023/09/18 01:32:57;;;;;;;4.10;3.20;;;;;;;15.02;100.00;101351.19;104651;1256;71410;-51
2023/09/18 01:35:29;;;;;;;3.80;3.00;;;;;;;15.02;100.00;101348.48;104453;1257;60443;-50
2023/09/18 01:37:57;;;;;;;3.00;2.60;;;;;;;15.01;100.00;101347.98;105128;1254;60613;-50
2023/09/18 01:40:24;;;;;;;3.40;2.90;;;;;;;15.00;100.00;101344.20;104730;1254;73820;-52
2023/09/18 01:42:52;;;;;;;4.20;2.50;;;;;;;14.99;100.00;101341.18;104679;1260;64998;-50
2023/09/18 01:45:20;;;;;;;5.30;3.30;;;;;;;14.98;100.00;101338.14;104696;1254;72446;-51
2023/09/18 01:47:47;;;;;;;4.50;3.60;;;;;;;14.97;100.00;101330.81;104651;1257;61276;-50
2023/09/18 01:50:14;;;;;;;2.90;2.70;;;;;;;14.94;100.00;101333.45;104716;1259;60505;-51
2023/09/18 01:52:42;;;;;;;4.00;2.50;;;;;;;14.92;100.00;101332.10;104340;1254;73813;-51
2023/09/18 01:55:10;;;;;;;4.20;3.90;;;;;;;14.89;100.00;101330.40;104749;1259;65803;-50
2023/09/18 01:57:37;;;;;;;6.80;2.90;;;;;;;14.86;100.00;101327.09;104779;1253;71439;-51
2023/09/18 02:00:09;;;;;;;3.60;2.00;;;;;;;14.85;100.00;101326.06;108970;1254;60419;-52
2023/09/18 02:02:40;;;;;;;2.50;2.30;;;;;;;14.83;100.00;101328.47;108919;1254;58542;-52
2023/09/18 02:05:27;;;;;;;4.50;2.20;;;;;;;14.82;100.00;101327.08;108949;1254;73881;-52
2023/09/18 02:07:56;;;;;;;5.60;1.70;;;;;;;14.82;100.00;101324.73;108896;1256;66818;-52
2023/09/18 02:10:23;;;;;;;3.40;2.10;;;;;;;14.82;100.00;101325.27;108878;1254;72684;-52
2023/09/18 02:12:51;;;;;;;2.80;2.50;;;;;;;14.84;100.00;101323.77;108815;1256;60070;-52
2023/09/18 02:15:18;;;;;;;3.90;2.30;;;;;;;14.86;100.00;101320.42;109002;1253;60773;-52
2023/09/18 02:17:45;;;;;;;2.50;2.30;;;;;;;14.88;100.00;101321.79;109030;1254;74041;-52
2023/09/18 02:20:13;;;;;;;4.80;2.60;;;;;;;14.91;100.00;101314.60;108907;1254;67336;-52
2023/09/18 02:22:41;;;;;;;4.00;2.90;;;;;;;14.94;100.00;101317.20;108765;1257;73157;-52
2023/09/18 02:25:08;;;;;;;8.00;3.30;;;;;;;14.95;100.00;101311.18;108972;1254;58804;-52
2023/09/18 02:27:35;;;;;;;5.90;2.90;;;;;;;14.97;100.00;101316.13;108941;1254;62297;-51
2023/09/18 02:30:03;;;;;;;3.60;3.30;;;;;;;14.99;100.00;101312.98;105483;1254;73869;-50
2023/09/18 02:32:31;;;;;;;4.20;3.90;;;;;;;15.00;100.00;101310.05;104762;1257;65691;-51
2023/09/18 02:34:59;;;;;;;5.20;2.80;;;;;;;15.00;100.00;101307.90;104733;1258;71891;-50
2023/09/18 02:37:28;;;;;;;5.00;4.60;;;;;;;15.00;100.00;101304.09;106175;1256;60543;-50
2023/09/18 02:39:56;;;;;;;6.00;4.20;;;;;;;15.00;100.00;101304.98;104724;1254;61017;-51
2023/09/18 02:42:23;;;;;;;3.60;3.20;;;;;;;15.00;100.00;101305.56;104780;1260;74126;-51
2023/09/18 02:44:51;;;;;;;6.80;3.90;;;;;;;14.98;100.00;101304.73;104656;1253;65766;-49
2023/09/18 02:47:19;;;;;;;4.70;4.30;;;;;;;14.96;100.00;101303.92;104601;1254;73128;-50
2023/09/18 02:49:46;;;;;;;3.00;2.80;;;;;;;14.93;100.00;101304.05;105320;1257;60411;-50
2023/09/18 02:52:14;;;;;;;3.40;3.20;;;;;;;14.90;100.00;101297.30;104621;1260;60396;-51
2023/09/18 02:54:41;;;;;;;3.70;2.70;;;;;;;14.86;100.00;101294.77;104457;1259;73837;-52
2023/09/18 02:57:09;;;;;;;5.20;2.90;;;;;;;14.83;100.00;101294.14;104780;1260;67301;-50
2023/09/18 02:59:37;;;;;;;2.90;2.60;;;;;;;14.81;100.00;101290.79;108586;1254;71429;-52
2023/09/18 03:02:04;;;;;;;3.30;2.40;;;;;;;14.80;100.00;101289.23;105153;1254;60459;-51
2023/09/18 03:04:32;;;;;;;4.10;3.40;;;;;;;14.77;100.00;101288.25;104734;1253;60821;-50
2023/09/18 03:07:00;;;;;;;4.20;3.20;;;;;;;14.75;100.00;101282.56;104851;1254;72651;-51
2023/09/18 03:09:27;;;;;;;5.30;3.50;;;;;;;14.72;100.00;101280.66;104703;1259;66697;-51
2023/09/18 03:11:55;;;;;;;4.40;3.80;;;;;;;14.70;100.00;101277.90;104757;1253;73120;-51
2023/09/18 03:14:22;;;;;;;4.70;3.20;;;;;;;14.67;100.00;101274.41;104808;1259;60623;-50
2023/09/18 03:16:50;;;;;;;5.80;5.00;;;;;;;14.65;100.00;101275.20;104520;1257;60579;-51
2023/09/18 03:19:17;;;;;;;5.10;4.50;;;;;;;14.61;100.00;101277.73;104727;1254;72583;-51
2023/09/18 03:21:46;;;;;;;4.20;3.90;;;;;;;14.57;100.00;101282.40;105285;1254;65578;-51
2023/09/18 03:24:13;;;;;;;4.50;3.20;;;;;;;14.53;100.00;101282.74;104562;1261;74502;-51
2023/09/18 03:26:41;;;;;;;4.90;3.30;;;;;;;14.48;100.00;101278.60;104822;1257;61731;-51
2023/09/18 03:29:08;;;;;;;6.00;2.70;;;;;;;14.43;100.00;101286.41;104821;1254;60349;-50
2023/09/18 03:31:36;;;;;;;3.00;2.80;;;;;;;14.38;100.00;101281.31;104596;1254;72924;-50
2023/09/18 03:34:04;;;;;;;3.80;2.80;;;;;;;14.36;100.00;101283.93;104487;1254;67296;-49
2023/09/18 03:36:31;;;;;;;3.10;2.80;;;;;;;14.35;100.00;101277.82;104488;1257;71304;-51
2023/09/18 03:38:59;;;;;;;3.00;2.70;;;;;;;14.35;100.00;101274.20;106048;1257;60519;-50
2023/09/18 03:41:27;;;;;;;7.30;3.90;;;;;;;14.35;100.00;101274.92;104692;1254;62209;-50
2023/09/18 03:43:55;;;;;;;7.30;3.50;;;;;;;14.36;100.00;101276.73;104591;1260;73811;-51
2023/09/18 03:46:22;;;;;;;3.90;3.60;;;;;;;14.35;100.00;101277.81;104829;1254;67390;-51
2023/09/18 03:48:50;;;;;;;5.40;3.60;;;;;;;14.37;100.00;101274.32;105408;1254;74296;-51
2023/09/18 03:51:19;;;;;;;5.80;4.40;;;;;;;14.38;100.00;101271.20;105029;1258;60543;-51
2023/09/18 03:53:48;;;;;;;2.90;2.70;;;;;;;14.36;100.00;101268.76;104727;1254;60472;-51
2023/09/18 03:56:15;;;;;;;4.10;3.80;;;;;;;14.35;100.00;101270.23;108920;1256;74990;-52
2023/09/18 03:58:45;;;;;;;3.90;3.50;;;;;;;14.34;100.00;101273.34;106829;1253;67509;-50
2023/09/18 04:01:12;;;;;;;4.40;3.20;;;;;;;14.33;100.00;101273.39;104637;1261;72410;-50
2023/09/18 04:03:39;;;;;;;5.30;3.40;;;;;;;14.32;100.00;101270.71;104678;1257;60583;-50
2023/09/18 04:06:07;;;;;;;6.20;2.40;;;;;;;14.31;100.00;101274.18;104787;1254;60627;-50
2023/09/18 04:08:34;;;;;;;6.00;3.40;;;;;;;14.32;100.00;101275.23;104519;1259;73758;-51
2023/09/18 04:11:04;;;;;;;4.30;3.00;;;;;;;14.33;100.00;101276.11;104516;1254;66795;-51
2023/09/18 04:13:33;;;;;;;3.00;2.80;;;;;;;14.34;100.00;101278.59;104776;1257;71419;-50
2023/09/18 04:16:03;;;;;;;4.70;3.80;;;;;;;14.35;100.00;101276.38;104568;1256;61157;-50
2023/09/18 04:18:31;;;;;;;5.20;3.30;;;;;;;14.36;100.00;101275.62;107132;1254;60670;-50
2023/09/18 04:20:59;;;;;;;3.80;3.50;;;;;;;14.36;100.00;101272.17;104623;1259;73826;-50
2023/09/18 04:23:27;;;;;;;4.80;3.30;;;;;;;14.36;100.00;101272.02;104697;1259;66744;-51
2023/09/18 04:25:54;;;;;;;5.50;3.20;;;;;;;14.36;100.00;101266.95;104775;1255;71332;-51
2023/09/18 04:28:22;;;;;;;11.80;3.80;;;;;;;14.36;100.00;101270.20;104639;1257;60556;-51
2023/09/18 04:30:50;;;;;;;7.20;3.80;;;;;;;14.36;100.00;101266.02;104579;1254;61272;-51
2023/09/18 04:33:18;;;;;;;6.00;3.70;;;;;;;14.38;100.00;101266.86;105821;1254;72653;-50
2023/09/18 04:35:46;;;;;;;4.80;4.40;;;;;;;14.40;100.00;101266.09;104175;1261;67609;-51
2023/09/18 04:38:19;;;;;;;4.70;3.40;;;;;;;14.43;100.00;101263.67;106902;1256;71328;-51
2023/09/18 04:40:47;;;;;;;3.90;2.90;;;;;;;14.46;100.00;101264.80;105048;1259;60563;-52
2023/09/18 04:43:14;;;;;;;4.50;4.00;;;;;;;14.51;100.00;101261.34;104529;1254;60681;-51
2023/09/18 04:45:42;;;;;;;3.20;3.00;;;;;;;14.56;100.00;101263.64;104769;1255;72560;-51
2023/09/18 04:48:10;;;;;;;4.50;2.90;;;;;;;14.63;100.00;101266.41;108896;1254;66119;-52
2023/09/18 04:50:38;;;;;;;8.60;3.40;;;;;;;14.71;100.00;101267.34;108710;1254;71645;-52
2023/09/18 04:53:05;;;;;;;12.10;4.10;;;;;;;14.82;100.00;101267.10;108926;1257;60018;-52
2023/09/18 04:55:33;;;;;;;4.80;3.30;;;;;;;14.96;100.00;101268.83;108930;1254;58758;-52
2023/09/18 04:58:00;;;;;;;6.50;2.70;;;;;;;15.11;100.00;101267.63;109019;1254;73953;-52
2023/09/18 05:00:29;;;;;;;4.20;3.00;;;;;;;15.24;100.00;101270.18;108711;1254;65496;-52
2023/09/18 05:02:57;;;;;;;3.80;3.40;;;;;;;15.34;100.00;101276.42;108975;1254;72670;-52
2023/09/18 05:05:24;;;;;;;4.60;3.40;;;;;;;15.42;100.00;101277.84;108940;1254;60497;-52
2023/09/18 05:07:52;;;;;;;3.80;2.80;;;;;;;15.50;100.00;101278.80;108963;1254;58617;-52
2023/09/18 05:10:19;;;;;;;3.30;3.10;;;;;;;15.58;100.00;101279.38;108919;1254;73770;-52
2023/09/18 05:12:49;;;;;;;5.20;3.10;;;;;;;15.65;100.00;101277.05;109073;1254;67377;-52
2023/09/18 05:15:16;;;;;;;3.80;2.80;;;;;;;15.73;100.00;101278.69;108847;1254;71211;-52
2023/09/18 05:17:46;;;;;;;5.40;2.80;;;;;;;15.79;100.00;101278.23;109041;1254;58804;-52
2023/09/18 05:20:16;;;;;;;4.10;2.80;;;;;;;15.85;100.00;101283.54;108998;1256;58187;-52
2023/09/18 05:22:44;;;;;;;4.80;2.70;;;;;;;15.92;100.00;101283.62;108915;1254;74286;-52
2023/09/18 05:25:14;;;;;;;4.90;2.70;;;;;;;15.98;100.00;101288.56;108971;1254;67582;-52
2023/09/18 05:27:44;;;;;;;6.30;2.50;;;;;;;16.05;100.00;101290.77;108984;1254;70467;-52
2023/09/18 05:30:20;;;;;;;4.70;3.10;;;;;;;16.12;100.00;101292.59;105465;1257;60678;-51
2023/09/18 05:32:48;;;;;;;4.60;3.60;;;;;;;16.20;100.00;101297.10;105222;1254;60630;-51
2023/09/18 05:35:16;;;;;;;4.60;2.80;;;;;;;16.30;100.00;101297.20;104744;1261;74171;-51
2023/09/18 05:37:44;;;;;;;3.50;2.60;;;;;;;16.40;100.00;101298.15;105175;1259;67113;-51
2023/09/18 05:40:12;;;;;;;8.30;3.60;;;;;;;16.50;100.00;101300.55;106058;1256;72904;-51
2023/09/18 05:42:43;;;;;;;4.20;3.60;;;;;;;16.61;100.00;101303.88;105491;1256;60443;-50
2023/09/18 05:45:11;;;;;;;3.10;2.00;;;;;;;16.73;100.00;101306.71;104884;1254;60431;-51
2023/09/18 05:47:39;;;;;;;6.00;2.40;;;;;;;16.84;100.00;101307.45;104731;1254;74276;-50
2023/09/18 05:50:09;;;;;;;4.00;2.60;;;;;;;16.93;100.00;101304.80;105669;1254;65761;-51
2023/09/18 05:52:36;;;;;;;3.80;3.40;;;;;;;17.03;100.00;101306.65;106126;1258;72293;-51
2023/09/18 05:55:04;;;;;;;3.10;2.70;;;;;;;17.12;100.00;101304.20;104892;1259;61154;-50
2023/09/18 05:57:32;;;;;;;8.10;3.50;;;;;;;17.21;100.00;101307.91;104575;1259;60636;-52
2023/09/18 05:59:59;;;;;;;4.20;2.50;;;;;;;17.29;100.00;101309.14;104706;1257;74335;-51
2023/09/18 06:02:27;;;;;;;4.30;3.40;;;;;;;17.37;100.00;101314.50;104879;1254;66911;-52
2023/09/18 06:05:00;;;;;;;4.80;2.40;;;;;;;17.45;100.00;101316.13;104878;1258;72705;-51
2023/09/18 06:07:27;;;;;;;5.90;2.80;;;;;;;17.53;100.00;101315.36;105322;1256;60994;-52
2023/09/18 06:09:54;;;;;;;5.40;2.20;;;;;;;17.61;100.00;101317.50;105020;1259;60467;-51
2023/09/18 06:12:22;;;;;;;3.20;2.60;;;;;;;17.67;100.00;101316.78;104952;1254;73880;-51
2023/09/18 06:14:49;;;;;;;3.40;2.80;;;;;;;17.75;100.00;101320.38;104907;1255;67568;-52
2023/09/18 06:17:17;;;;;;;6.30;3.10;;;;;;;17.82;100.00;101326.36;104643;1259;72778;-52
2023/09/18 06:19:45;;;;;;;3.60;2.90;;;;;;;17.89;100.00;101332.52;106196;1254;60456;-52
2023/09/18 06:22:13;;;;;;;3.10;2.50;;;;;;;17.96;100.00;101332.86;105255;1259;60656;-52
2023/09/18 06:24:40;;;;;;;2.70;2.20;;;;;;;18.03;100.00;101335.95;105297;1253;72895;-52
2023/09/18 06:27:07;;;;;;;2.50;2.30;;;;;;;18.09;100.00;101340.84;105066;1254;65656;-51
2023/09/18 06:29:37;;;;;;;10.80;3.60;;;;;;;18.16;100.00;101343.75;105035;1257;71453;-51
2023/09/18 06:32:06;;;;;;;3.10;2.70;;;;;;;18.23;100.00;101346.08;105094;1255;60467;-52
2023/09/18 06:34:33;;;;;;;3.90;1.90;;;;;;;18.30;100.00;101349.69;105004;1254;60304;-51
2023/09/18 06:37:01;;;;;;;5.00;3.50;;;;;;;18.37;100.00;101350.58;104566;1254;72183;-53
2023/09/18 06:39:28;;;;;;;7.60;1.90;;;;;;;18.45;100.00;101357.77;104730;1259;66116;-52
2023/09/18 06:41:55;;;;;;;2.60;1.90;;;;;;;18.52;100.00;101360.48;104707;1254;73039;-53
2023/09/18 06:44:24;;;;;;;2.00;1.60;;;;;;;18.59;100.00;101360.81;105215;1254;60422;-53
2023/09/18 06:46:52;;;;;;;3.90;1.80;;;;;;;18.67;100.00;101369.10;108915;1255;58997;-54
2023/09/18 06:49:19;;;;;;;7.40;1.90;;;;;;;18.75;100.00;101370.13;108916;1257;71287;-54
2023/09/18 06:51:47;;;;;;;4.00;1.50;;;;;;;18.82;100.00;101372.08;105815;1257;65259;-53
2023/09/18 06:54:15;;;;;;;2.10;1.90;;;;;;;18.88;100.00;101374.60;104726;1257;71284;-52
2023/09/18 06:56:44;;;;;;;4.30;2.50;;;;;;;18.96;100.00;101376.75;104662;1259;60652;-51
2023/09/18 06:59:12;;;;;;;13.00;3.10;;;;;;;19.03;100.00;101378.16;105544;1256;60652;-52
2023/09/18 07:01:41;;;;;;;3.10;2.40;;;;;;;19.10;100.00;101379.92;105311;1259;72546;-51
2023/09/18 07:04:08;;;;;;;3.00;2.10;;;;;;;19.17;100.00;101383.89;105048;1257;68824;-52
2023/09/18 07:06:37;;;;;;;3.10;1.60;;;;;;;19.23;100.00;101388.05;104815;1259;73687;-51
2023/09/18 07:09:06;;;;;;;4.60;2.20;;;;;;;19.31;100.00;101394.68;104713;1256;61312;-52
2023/09/18 07:11:34;;;;;;;4.40;1.90;;;;;;;19.38;100.00;101398.27;104814;1256;59251;-51
2023/09/18 07:14:05;;;;;;;4.80;1.50;;;;;;;19.47;100.00;101398.54;105188;1254;72685;-51
2023/09/18 07:16:33;;;;;;;2.40;1.90;;;;;;;19.54;100.00;101402.08;105336;1256;66912;-52
2023/09/18 07:19:04;;;;;;;2.90;2.20;;;;;;;19.62;100.00;101398.73;105707;1258;75984;-52
2023/09/18 07:21:32;;;;;;;2.00;1.40;;;;;;;19.70;100.00;101402.80;105828;1255;60460;-53
2023/09/18 07:23:59;;;;;;;4.50;1.40;;;;;;;19.77;100.00;101401.28;104824;1254;60355;-52
2023/09/18 07:26:26;;;;;;;3.00;1.20;;;;;;;19.81;100.00;101401.73;104816;1259;73834;-52
2023/09/18 07:28:54;;;;;;;2.70;1.30;;;;;;;19.88;100.00;101402.42;104721;1259;67258;-54
2023/09/18 07:31:22;;;;;;;2.80;1.40;;;;;;;19.95;100.00;101408.34;104730;1259;70897;-53
2023/09/18 07:33:49;;;;;;;4.20;1.80;;;;;;;20.02;100.00;101408.98;104717;1257;60537;-53
2023/09/18 07:36:17;;;;;;;2.10;1.90;;;;;;;20.10;100.00;101415.09;104703;1256;59257;-53
2023/09/18 07:38:45;;;;;;;1.80;1.40;;;;;;;20.18;100.00;101417.52;104676;1256;72668;-53
2023/09/18 07:41:15;;;;;;;3.60;1.70;;;;;;;20.26;100.00;101418.96;109007;1254;65057;-51
2023/09/18 07:43:42;;;;;;;3.80;1.90;;;;;;;20.32;100.00;101418.80;109028;1257;71372;-51
2023/09/18 07:46:10;;;;;;;3.80;1.60;;;;;;;20.38;100.00;101419.16;108993;1257;60114;-51
2023/09/18 07:48:37;;;;;;;7.00;1.80;;;;;;;20.46;100.00;101424.32;108833;1256;60047;-52
2023/09/18 07:51:05;;;;;;;5.10;1.80;;;;;;;20.56;100.00;101429.92;108922;1254;73939;-52
2023/09/18 07:53:32;;;;;;;3.50;1.80;;;;;;;20.65;100.00;101436.04;108956;1257;66869;-52
2023/09/18 07:56:01;;;;;;;7.20;1.90;;;;;;;20.75;100.00;101438.70;108823;1255;73305;-51
2023/09/18 07:58:33;;;;;;;5.50;1.90;;;;;;;20.85;100.00;101442.27;108727;1255;60996;-52
2023/09/18 08:01:05;;;;;;;3.50;1.60;;;;;;;20.95;100.00;101442.14;105315;1259;60447;-51
2023/09/18 08:03:32;;;;;;;4.10;1.70;;;;;;;21.05;100.00;101451.54;105839;1256;72790;-52
2023/09/18 08:06:00;;;;;;;3.50;1.90;;;;;;;21.14;100.00;101454.27;106015;1257;66911;-52
2023/09/18 08:08:30;;;;;;;3.20;1.60;;;;;;;21.23;100.00;101457.00;104651;1257;73179;-53
2023/09/18 08:10:58;;;;;;;3.40;2.50;;;;;;;21.32;100.00;101460.02;108937;1259;58634;-53
2023/09/18 08:13:29;;;;;;;5.80;1.80;;;;;;;21.39;100.00;101461.55;104818;1257;60529;-52
2023/09/18 08:15:56;;;;;;;1.60;1.50;;;;;;;21.46;100.00;101467.13;104707;1258;74193;-52
2023/09/18 08:18:26;;;;;;;1.40;1.30;;;;;;;21.52;100.00;101462.66;105153;1259;65506;-52
2023/09/18 08:20:54;;;;;;;2.60;1.30;;;;;;;21.59;100.00;101465.52;105300;1259;73158;-51
2023/09/18 08:23:22;;;;;;;8.40;1.20;;;;;;;21.64;100.00;101467.91;104801;1257;60562;-53
2023/09/18 08:25:51;;;;;;;6.70;1.50;;;;;;;21.70;100.00;101470.81;105171;1259;60430;-52
2023/09/18 08:28:18;;;;;;;1.90;1.30;;;;;;;21.76;100.00;101473.65;104852;1259;71499;-52
2023/09/18 08:30:47;;;;;;;2.90;1.60;;;;;;;21.81;100.00;101475.84;104791;1257;67060;-52
2023/09/18 08:33:14;;;;;;;4.90;1.20;;;;;;;21.87;100.00;101478.02;105420;1257;74845;-53
2023/09/18 08:35:42;;;;;;;2.50;1.00;;;;;;;21.95;100.00;101478.74;104904;1257;60602;-52
2023/09/18 08:38:09;;;;;;;3.20;1.20;;;;;;;22.03;100.00;101484.11;104688;1259;60473;-52
2023/09/18 08:40:37;;;;;;;1.80;1.00;;;;;;;22.10;100.00;101486.16;104614;1257;73824;-52
2023/09/18 08:43:04;;;;;;;8.90;1.30;;;;;;;22.18;100.00;101488.91;104865;1257;68094;-52
2023/09/18 08:45:38;;;;;;;3.90;1.10;;;;;;;22.25;100.00;101489.48;104567;1260;72876;-52
2023/09/18 08:48:05;;;;;;;2.80;1.10;;;;;;;22.33;100.00;101492.42;105132;1257;60511;-52
2023/09/18 08:50:33;;;;;;;2.40;1.00;;;;;;;22.40;100.00;101491.55;105577;1256;60483;-52
2023/09/18 08:53:01;;;;;;;5.00;1.20;;;;;;;22.47;100.00;101492.14;104814;1257;73030;-52
2023/09/18 08:55:32;;;;;;;3.10;0.90;;;;;;;22.55;100.00;101500.14;104650;1257;66812;-52
2023/09/18 08:57:59;;;;;;;1.40;0.80;;;;;;;22.63;100.00;101500.15;104773;1255;71256;-52
2023/09/18 09:00:27;;;;;;;2.20;1.10;;;;;;;22.70;100.00;101502.63;105190;1256;60510;-53
2023/09/18 09:04:54;;;;;;;3.90;1.20;;;;;;;22.82;100.00;101628.42;101681;1292;601227;-50
2023/09/18 09:07:22;;;;;;;3.30;0.80;;;;;;;22.86;100.00;101650.67;104140;1266;59785;-51
2023/09/18 09:09:49;;;;;;;2.30;0.80;;;;;;;22.92;100.00;101621.85;104155;1272;59186;-51
2023/09/18 09:12:39;;;;;;;2.20;0.90;;;;;;;22.98;100.00;101607.34;103829;1268;73217;-52
2023/09/18 09:15:07;;;;;;;1.30;1.10;;;;;;;23.05;100.00;101612.34;104385;1273;66949;-52
2023/09/18 09:17:34;;;;;;;4.80;0.90;;;;;;;23.11;100.00;101598.73;104060;1271;172531;-51
2023/09/18 09:20:10;;;;;;;1.50;0.80;;;;;;;23.16;100.00;101593.92;103991;1263;61306;-51
2023/09/18 09:22:40;;;;;;;1.00;0.90;;;;;;;23.21;100.00;101595.10;104572;1264;61465;-53
2023/09/18 09:25:20;;;;;;;1.90;0.90;;;;;;;23.20;100.00;101583.73;104657;1263;72225;-52
2023/09/18 09:27:47;;;;;;;2.20;0.80;;;;;;;23.17;100.00;101589.27;104050;1264;66121;-52
2023/09/18 09:30:23;;;;;;;0.80;0.80;;;;;;;23.15;100.00;101585.44;104082;1267;71475;-52
2023/09/18 09:32:51;;;;;;;2.00;0.80;;;;;;;23.12;100.00;101580.86;104261;1263;59647;-52
2023/09/18 09:35:21;;;;;;;1.20;0.70;;;;;;;23.14;100.00;101571.76;104891;1265;59948;-53
2023/09/18 09:37:51;;;;;;;1.50;1.00;;;;;;;23.19;100.00;101568.13;104496;1264;73026;-52
2023/09/18 09:40:20;;;;;;;2.50;0.80;;;;;;;23.22;100.00;101568.38;104091;1266;67050;-52
2023/09/18 09:42:47;;;;;;;1.30;0.70;;;;;;;23.28;100.00;101559.95;104157;1267;71462;-52
2023/09/18 09:45:18;;;;;;;2.70;1.50;;;;;;;23.35;100.00;101553.55;104139;1266;60122;-52
2023/09/18 09:47:45;;;;;;;1.80;0.60;;;;;;;23.42;100.00;101554.34;104197;1269;59864;-52
2023/09/18 09:50:16;;;;;;;3.30;0.70;;;;;;;23.49;100.00;101554.91;104191;1269;72927;-52
2023/09/18 09:52:44;;;;;;;0.90;0.80;;;;;;;23.57;100.00;101556.36;104299;1269;65249;-52
2023/09/18 09:55:31;;;;;;;1.10;0.80;;;;;;;23.64;100.00;101556.19;104099;1263;72750;-53
2023/09/18 09:57:59;;;;;;;3.80;0.80;;;;;;;23.70;100.00;101561.39;104126;1264;59682;-53
2023/09/18 10:00:42;;;;;;;0.70;0.70;;;;;;;23.75;100.00;101554.04;104217;1264;60474;-52
2023/09/18 10:03:14;;;;;;;5.00;1.10;;;;;;;23.81;100.00;101559.13;105154;1266;73121;-53
2023/09/18 10:05:43;;;;;;;2.60;0.90;;;;;;;23.86;100.00;101558.54;104900;1266;65294;-53
2023/09/18 10:08:14;;;;;;;0.80;0.70;;;;;;;23.90;100.00;101552.02;105109;1267;71471;-52
2023/09/18 10:10:49;;;;;;;1.70;0.70;;;;;;;23.94;100.00;101549.68;105785;1268;60607;-52
2023/09/18 10:13:26;;;;;;;1.60;0.60;;;;;;;23.98;100.00;101548.52;104419;1267;63966;-52
2023/09/18 10:15:53;;;;;;;1.20;0.90;;;;;;;24.01;100.00;101551.74;104143;1265;73894;-52
2023/09/18 10:18:37;;;;;;;0.80;0.80;;;;;;;24.05;100.00;101541.17;104012;1267;66735;-52
2023/09/18 10:21:14;;;;;;;0.70;0.70;;;;;;;24.08;100.00;101549.48;104278;1267;71500;-52
2023/09/18 10:23:59;;;;;;;1.60;0.70;;;;;;;24.11;100.00;101546.57;104050;1267;59743;-52
2023/09/18 10:26:28;;;;;;;2.20;0.70;;;;;;;24.12;100.00;101546.30;104891;1265;59791;-52
2023/09/18 10:29:02;;;;;;;0.70;0.70;;;;;;;24.12;100.00;101534.71;104200;1266;73114;-53
2023/09/18 10:31:29;;;;;;;4.00;0.90;;;;;;;24.14;100.00;101530.17;105628;1267;67752;-53
2023/09/18 10:33:57;;;;;;;0.70;0.70;;;;;;;24.16;100.00;101521.40;104183;1268;71697;-52
2023/09/18 10:36:25;;;;;;;2.20;0.70;;;;;;;24.18;100.00;101524.61;104002;1267;59674;-53
2023/09/18 10:38:53;;;;;;;1.10;0.70;;;;;;;24.21;100.00;101522.71;108357;1265;58989;-51
2023/09/18 10:41:20;;;;;;;1.50;0.70;;;;;;;24.25;100.00;101523.14;108067;1265;72655;-52
2023/09/18 10:43:53;;;;;;;2.30;0.70;;;;;;;24.28;100.00;101520.48;105484;1266;67376;-51
2023/09/18 10:46:20;;;;;;;1.20;0.60;;;;;;;24.27;100.00;101518.16;108236;1266;71435;-53
2023/09/18 10:48:47;;;;;;;0.90;0.70;;;;;;;24.24;100.00;101514.20;108188;1266;58854;-53
2023/09/18 10:51:15;;;;;;;0.60;0.60;;;;;;;24.22;100.00;101504.87;108286;1265;58922;-53
2023/09/18 10:53:42;;;;;;;0.80;0.70;;;;;;;24.21;100.00;101498.30;106965;1270;71845;-52
2023/09/18 10:56:11;;;;;;;2.40;0.70;;;;;;;24.21;100.00;101498.14;104010;1267;65814;-51
2023/09/18 10:58:38;;;;;;;1.00;0.70;;;;;;;24.24;100.00;101494.99;104217;1268;71774;-51
2023/09/18 11:01:06;;;;;;;0.70;0.60;;;;;;;24.26;100.00;101493.86;104168;1267;59758;-51
2023/09/18 11:03:33;;;;;;;1.50;0.70;;;;;;;24.29;100.00;101498.21;103671;1266;60304;-52
2023/09/18 11:06:06;;;;;;;2.60;0.70;;;;;;;24.33;100.00;101488.39;108243;1266;73032;-52
2023/09/18 11:08:35;;;;;;;4.30;0.80;;;;;;;24.35;100.00;101481.06;108334;1265;67025;-52
2023/09/18 11:11:09;;;;;;;0.60;0.60;;;;;;;24.36;100.00;101471.64;108283;1265;72699;-52
2023/09/18 11:13:42;;;;;;;1.90;0.90;;;;;;;24.37;100.00;101472.46;108294;1266;60142;-52
2023/09/18 11:16:38;;;;;;;3.10;0.90;;;;;;;24.38;100.00;101469.23;104431;1267;59790;-53
2023/09/18 11:19:11;;;;;;;0.80;0.80;;;;;;;24.41;100.00;101472.88;105590;1266;71492;-52